createdAt,value
2023-09-10T00:00:20.658Z,100900.84
2023-09-10T00:02:47.332Z,100898.16
2023-09-10T00:05:14.062Z,100908.88
2023-09-10T00:07:40.749Z,100900.91
2023-09-10T00:10:07.914Z,100899.13
2023-09-10T00:12:37.047Z,100901.81
2023-09-10T00:15:05.388Z,100895.56
2023-09-10T00:17:32.220Z,100903.59
2023-09-10T00:19:59.091Z,100902.72
2023-09-10T00:22:25.917Z,100897.50
2023-09-10T00:24:52.555Z,100903.59
2023-09-10T00:27:19.200Z,100895.66
2023-09-10T00:29:45.862Z,100902.84
2023-09-10T00:32:12.597Z,100896.62
2023-09-10T00:34:41.589Z,100893.09
2023-09-10T00:37:08.817Z,100901.13
2023-09-10T00:39:35.473Z,100902.00
2023-09-10T00:42:02.157Z,100900.28
2023-09-10T00:44:28.841Z,100899.41
2023-09-10T00:46:55.616Z,100896.75
2023-09-10T00:49:22.294Z,100898.47
2023-09-10T00:51:49.153Z,100899.41
2023-09-10T00:54:16.363Z,100901.22
2023-09-10T00:56:43.178Z,100903.88
2023-09-10T00:59:10.109Z,100899.50
2023-09-10T01:01:37.250Z,100898.53
2023-09-10T01:04:04.279Z,100899.50
2023-09-10T01:06:31.278Z,100899.50
2023-09-10T01:08:58.220Z,100894.13
2023-09-10T01:11:43.818Z,100896.81
2023-09-10T01:14:22.309Z,100899.50
2023-09-10T01:16:58.171Z,100902.16
2023-09-10T01:19:24.898Z,100903.12
2023-09-10T01:21:58.607Z,100895.09
2023-09-10T01:24:36.503Z,100892.53
2023-09-10T01:27:04.117Z,100895.22
2023-09-10T01:29:30.844Z,100896.12
2023-09-10T01:32:01.823Z,100898.81
2023-09-10T01:34:31.965Z,100902.38
2023-09-10T01:37:03.330Z,100895.28
2023-09-10T01:39:38.271Z,100892.59
2023-09-10T01:42:08.569Z,100901.50
2023-09-10T01:44:36.230Z,100896.12
2023-09-10T01:47:03.240Z,100897.09
2023-09-10T01:49:29.880Z,100896.25
2023-09-10T01:51:56.530Z,100896.25
2023-09-10T01:54:23.272Z,100900.63
2023-09-10T01:56:50.080Z,100902.56
2023-09-10T01:59:16.881Z,100895.38
2023-09-10T02:01:43.748Z,100893.56
2023-09-10T02:04:10.606Z,100895.38
2023-09-10T02:06:37.367Z,100898.19
2023-09-10T02:09:04.235Z,100900.84
2023-09-10T02:11:30.918Z,100904.50
2023-09-10T02:13:57.631Z,100907.16
2023-09-10T02:16:24.668Z,100905.34
2023-09-10T02:18:51.365Z,100903.59
2023-09-10T02:21:18.056Z,100900.94
2023-09-10T02:23:44.979Z,100904.56
2023-09-10T02:26:11.744Z,100897.41
2023-09-10T02:28:38.639Z,100909.84
2023-09-10T02:31:08.936Z,100903.59
2023-09-10T02:33:36.203Z,100902.75
2023-09-10T02:36:03.540Z,100902.75
2023-09-10T02:38:30.393Z,100901.03
2023-09-10T02:40:57.372Z,100905.53
2023-09-10T02:43:24.185Z,100903.81
2023-09-10T02:45:50.833Z,100901.13
2023-09-10T02:48:17.449Z,100894.94
2023-09-10T02:50:44.132Z,100905.63
2023-09-10T02:53:13.182Z,100905.63
2023-09-10T02:55:39.902Z,100902.84
2023-09-10T02:58:09.712Z,100896.75
2023-09-10T03:00:36.416Z,100896.75
2023-09-10T03:03:05.602Z,100888.81
2023-09-10T03:05:35.822Z,100887.84
2023-09-10T03:08:02.580Z,100895.88
2023-09-10T03:10:29.256Z,100895.00
2023-09-10T03:12:55.927Z,100885.28
2023-09-10T03:15:22.549Z,100887.94
2023-09-10T03:17:52.149Z,100884.41
2023-09-10T03:20:18.887Z,100887.09
2023-09-10T03:22:45.764Z,100877.25
2023-09-10T03:25:12.606Z,100882.59
2023-09-10T03:27:39.398Z,100884.41
2023-09-10T03:30:06.708Z,100884.53
2023-09-10T03:32:33.637Z,100880.03
2023-09-10T03:35:00.485Z,100874.75
2023-09-10T03:37:27.142Z,100879.25
2023-09-10T03:39:53.802Z,100886.41
2023-09-10T03:42:20.457Z,100874.84
2023-09-10T03:44:47.200Z,100879.25
2023-09-10T03:47:13.924Z,100875.81
2023-09-10T03:49:40.725Z,100871.44
2023-09-10T03:52:17.542Z,100873.25
2023-09-10T03:54:44.175Z,100874.97
2023-09-10T03:57:10.848Z,100876.84
2023-09-10T03:59:37.462Z,100875.94
2023-09-10T04:02:04.374Z,100879.53
2023-09-10T04:04:31.098Z,100883.09
2023-09-10T04:06:57.784Z,100884.03
2023-09-10T04:09:25.584Z,100883.16
2023-09-10T04:11:52.289Z,100885.84
2023-09-10T04:14:19.277Z,100889.47
2023-09-10T04:16:46.123Z,100886.81
2023-09-10T04:19:12.943Z,100891.28
2023-09-10T04:21:39.579Z,100892.16
2023-09-10T04:24:06.720Z,100891.28
2023-09-10T04:26:33.437Z,100889.59
2023-09-10T04:29:00.128Z,100891.41
2023-09-10T04:31:29.384Z,100889.59
2023-09-10T04:33:56.246Z,100895.78
2023-09-10T04:36:23.484Z,100899.44
2023-09-10T04:38:50.186Z,100896.75
2023-09-10T04:41:17.000Z,100903.03
2023-09-10T04:43:43.724Z,100899.44
2023-09-10T04:46:10.433Z,100904.84
2023-09-10T04:48:37.518Z,100906.66
2023-09-10T04:51:04.879Z,100915.56
2023-09-10T04:53:34.236Z,100905.81
2023-09-10T04:56:01.012Z,100908.50
2023-09-10T04:58:27.686Z,100904.94
2023-09-10T05:00:54.345Z,100910.38
2023-09-10T05:03:22.539Z,100917.44
2023-09-10T05:05:49.620Z,100923.69
2023-09-10T05:08:18.251Z,100916.59
2023-09-10T05:10:49.153Z,100921.06
2023-09-10T05:13:15.924Z,100918.41
2023-09-10T05:15:42.678Z,100919.34
2023-09-10T05:18:09.512Z,100915.72
2023-09-10T05:20:36.408Z,100919.34
2023-09-10T05:23:03.111Z,100922.00
2023-09-10T05:25:29.751Z,100916.66
2023-09-10T05:27:56.368Z,100923.06
2023-09-10T05:30:23.418Z,100914.94
2023-09-10T05:32:50.192Z,100922.00
2023-09-10T05:35:19.982Z,100928.31
2023-09-10T05:37:48.957Z,100931.94
2023-09-10T05:40:15.694Z,100939.00
2023-09-10T05:42:42.449Z,100936.44
2023-09-10T05:45:09.429Z,100940.94
2023-09-10T05:47:36.204Z,100940.94
2023-09-10T05:50:03.078Z,100944.56
2023-09-10T05:52:29.796Z,100944.47
2023-09-10T05:54:56.466Z,100948.97
2023-09-10T05:57:23.135Z,100943.59
2023-09-10T05:59:50.778Z,100945.44
2023-09-10T06:02:17.633Z,100941.91
2023-09-10T06:04:44.430Z,100945.31
2023-09-10T06:07:11.402Z,100948.00
2023-09-10T06:09:38.214Z,100950.66
2023-09-10T06:12:05.250Z,100949.91
2023-09-10T06:14:34.949Z,100948.97
2023-09-10T06:17:02.442Z,100941.91
2023-09-10T06:19:29.170Z,100945.44
2023-09-10T06:21:55.781Z,100955.16
2023-09-10T06:24:22.546Z,100950.78
2023-09-10T06:26:49.208Z,100950.78
2023-09-10T06:29:15.922Z,100957.84
2023-09-10T06:31:42.702Z,100963.19
2023-09-10T06:34:09.450Z,100956.03
2023-09-10T06:36:36.436Z,100962.34
2023-09-10T06:39:04.781Z,100967.56
2023-09-10T06:41:31.415Z,100965.75
2023-09-10T06:43:58.085Z,100959.56
2023-09-10T06:46:25.068Z,100956.03
2023-09-10T06:48:51.784Z,100961.38
2023-09-10T06:51:18.418Z,100958.59
2023-09-10T06:53:45.083Z,100972.81
2023-09-10T06:56:11.773Z,100957.72
2023-09-10T06:58:38.816Z,100975.50
2023-09-10T07:01:06.573Z,100970.16
2023-09-10T07:03:34.638Z,100971.00
2023-09-10T07:06:03.949Z,100966.53
2023-09-10T07:08:30.648Z,100971.00
2023-09-10T07:10:58.543Z,100968.34
2023-09-10T07:13:25.197Z,100976.34
2023-09-10T07:15:54.297Z,100979.91
2023-09-10T07:18:21.008Z,100972.69
2023-09-10T07:20:47.758Z,100970.88
2023-09-10T07:23:14.560Z,100972.69
2023-09-10T07:25:41.279Z,100977.94
2023-09-10T07:28:07.995Z,100977.94
2023-09-10T07:30:34.634Z,100969.84
2023-09-10T07:33:01.295Z,100969.84
2023-09-10T07:35:28.919Z,100969.72
2023-09-10T07:37:56.056Z,100979.47
2023-09-10T07:40:22.781Z,100971.38
2023-09-10T07:42:49.445Z,100975.75
2023-09-10T07:45:16.239Z,100977.38
2023-09-10T07:47:43.205Z,100972.87
2023-09-10T07:50:10.385Z,100974.53
2023-09-10T07:52:37.112Z,100969.16
2023-09-10T07:55:04.216Z,100974.41
2023-09-10T07:57:30.837Z,100971.56
2023-09-10T07:59:57.524Z,100977.66
2023-09-10T08:02:28.120Z,100970.41
2023-09-10T08:04:55.126Z,100966.78
2023-09-10T08:07:21.921Z,100969.28
2023-09-10T08:09:48.815Z,100966.50
2023-09-10T08:12:15.478Z,100960.09
2023-09-10T08:14:42.815Z,100956.47
2023-09-10T08:17:09.609Z,100960.75
2023-09-10T08:19:36.374Z,100956.19
2023-09-10T08:22:03.571Z,100963.16
2023-09-10T08:24:30.236Z,100961.31
2023-09-10T08:26:56.926Z,100954.94
2023-09-10T08:29:23.718Z,100957.50
2023-09-10T08:31:50.471Z,100953.88
2023-09-10T08:34:17.133Z,100953.78
2023-09-10T08:36:43.892Z,100952.81
2023-09-10T08:39:12.746Z,100953.56
2023-09-10T08:41:55.328Z,100956.06
2023-09-10T08:44:22.072Z,100944.41
2023-09-10T08:46:50.305Z,100942.50
2023-09-10T08:49:19.867Z,100941.53
2023-09-10T08:51:46.667Z,100944.09
2023-09-10T08:54:13.796Z,100939.59
2023-09-10T08:56:40.412Z,100937.72
2023-09-10T08:59:07.156Z,100943.81
2023-09-10T09:01:34.804Z,100934.06
2023-09-10T09:04:01.848Z,100935.72
2023-09-10T09:06:30.199Z,100924.91
2023-09-10T09:08:58.431Z,100917.75
2023-09-10T09:11:25.320Z,100933.69
2023-09-10T09:13:53.606Z,100925.47
2023-09-10T09:16:21.747Z,100923.78
2023-09-10T09:18:48.454Z,100920.97
2023-09-10T09:21:20.142Z,100926.22
2023-09-10T09:23:53.480Z,100917.22
2023-09-10T09:26:20.333Z,100912.66
2023-09-10T09:28:47.101Z,100913.50
2023-09-10T09:31:13.832Z,100920.56
2023-09-10T09:33:40.850Z,100915.16
2023-09-10T09:36:11.172Z,100912.34
2023-09-10T09:38:45.863Z,100907.84
2023-09-10T09:41:13.208Z,100911.28
2023-09-10T09:43:39.952Z,100909.50
2023-09-10T09:46:06.664Z,100907.66
2023-09-10T09:48:34.310Z,100904.03
2023-09-10T09:51:00.987Z,100903.16
2023-09-10T09:53:28.457Z,100897.69
2023-09-10T09:56:00.419Z,100896.72
2023-09-10T09:58:27.437Z,100899.34
2023-09-10T10:00:54.220Z,100897.50
2023-09-10T10:03:21.054Z,100901.91
2023-09-10T10:05:51.749Z,100891.19
2023-09-10T10:08:30.344Z,100892.78
2023-09-10T10:10:59.887Z,100890.87
2023-09-10T10:13:27.570Z,100892.69
2023-09-10T10:15:55.648Z,100889.06
2023-09-10T10:18:23.500Z,100882.72
2023-09-10T10:20:51.022Z,100878.22
2023-09-10T10:23:25.375Z,100878.16
2023-09-10T10:25:54.159Z,100877.28
2023-09-10T10:28:21.249Z,100863.91
2023-09-10T10:30:49.836Z,100865.59
2023-09-10T10:33:20.514Z,100873.66
2023-09-10T10:36:10.884Z,100866.47
2023-09-10T10:38:40.249Z,100856.59
2023-09-10T10:41:18.813Z,100864.66
2023-09-10T10:43:52.153Z,100865.50
2023-09-10T10:46:19.506Z,100854.78
2023-09-10T10:48:46.257Z,100855.62
2023-09-10T10:51:16.134Z,100849.44
2023-09-10T10:53:44.952Z,100849.44
2023-09-10T10:56:11.598Z,100847.59
2023-09-10T10:58:41.485Z,100845.78
2023-09-10T11:01:08.291Z,100840.41
2023-09-10T11:03:35.109Z,100844.91
2023-09-10T11:06:06.111Z,100839.56
2023-09-10T11:08:36.142Z,100834.22
2023-09-10T11:11:04.910Z,100833.25
2023-09-10T11:13:33.069Z,100830.56
2023-09-10T11:16:06.283Z,100830.56
2023-09-10T11:18:35.929Z,100826.09
2023-09-10T11:21:09.574Z,100823.50
2023-09-10T11:23:40.154Z,100830.56
2023-09-10T11:26:16.384Z,100819.00
2023-09-10T11:28:48.068Z,100823.41
2023-09-10T11:31:39.939Z,100821.66
2023-09-10T11:34:19.289Z,100824.34
2023-09-10T11:36:47.437Z,100822.53
2023-09-10T11:39:15.462Z,100819.97
2023-09-10T11:41:49.258Z,100820.81
2023-09-10T11:44:16.233Z,100826.16
2023-09-10T11:46:45.540Z,100819.09
2023-09-10T11:49:14.233Z,100819.97
2023-09-10T11:51:42.428Z,100819.00
2023-09-10T11:54:11.231Z,100810.22
2023-09-10T11:56:37.935Z,100811.06
2023-09-10T11:59:06.766Z,100799.50
2023-09-10T12:01:33.503Z,100805.72
2023-09-10T12:04:01.581Z,100804.00
2023-09-10T12:06:28.335Z,100799.50
2023-09-10T12:08:55.438Z,100798.63
2023-09-10T12:11:22.218Z,100795.97
2023-09-10T12:13:48.904Z,100793.28
2023-09-10T12:16:15.629Z,100784.38
2023-09-10T12:18:42.926Z,100789.75
2023-09-10T12:21:15.498Z,100787.06
2023-09-10T12:23:42.896Z,100787.06
2023-09-10T12:26:09.811Z,100779.97
2023-09-10T12:28:36.434Z,100785.31
2023-09-10T12:31:03.682Z,100772.81
2023-09-10T12:33:30.380Z,100778.19
2023-09-10T12:35:57.210Z,100779.03
2023-09-10T12:38:23.983Z,100777.28
2023-09-10T12:40:51.467Z,100768.41
2023-09-10T12:43:21.910Z,100772.91
2023-09-10T12:45:48.682Z,100774.62
2023-09-10T12:48:19.000Z,100775.56
2023-09-10T12:50:46.612Z,100766.69
2023-09-10T12:53:15.461Z,100764.00
2023-09-10T12:55:42.642Z,100766.56
2023-09-10T12:58:12.936Z,100765.84
2023-09-10T13:00:39.742Z,100761.34
2023-09-10T13:03:06.875Z,100760.47
2023-09-10T13:05:33.652Z,100758.66
2023-09-10T13:08:04.426Z,100755.13
2023-09-10T13:10:31.211Z,100761.34
2023-09-10T13:12:57.883Z,100754.25
2023-09-10T13:15:24.558Z,100762.31
2023-09-10T13:17:51.456Z,100755.13
2023-09-10T13:20:18.398Z,100748.06
2023-09-10T13:22:45.559Z,100753.41
2023-09-10T13:25:12.823Z,100748.06
2023-09-10T13:27:39.682Z,100743.56
2023-09-10T13:30:07.399Z,100748.91
2023-09-10T13:32:34.174Z,100746.34
2023-09-10T13:35:01.071Z,100741.00
2023-09-10T13:37:27.787Z,100739.16
2023-09-10T13:39:54.377Z,100731.13
2023-09-10T13:42:21.151Z,100742.69
2023-09-10T13:44:48.064Z,100735.63
2023-09-10T13:47:14.878Z,100736.47
2023-09-10T13:49:41.568Z,100732.94
2023-09-10T13:52:08.200Z,100730.28
2023-09-10T13:54:34.825Z,100718.66
2023-09-10T13:57:01.512Z,100716.88
2023-09-10T13:59:28.244Z,100716.00
2023-09-10T14:01:55.004Z,100718.66
2023-09-10T14:04:21.695Z,100715.13
2023-09-10T14:06:48.319Z,100726.72
2023-09-10T14:09:14.977Z,100721.34
2023-09-10T14:11:41.713Z,100718.66
2023-09-10T14:14:08.434Z,100711.59
2023-09-10T14:16:35.113Z,100709.91
2023-09-10T14:19:01.934Z,100724.16
2023-09-10T14:21:28.602Z,100725.13
2023-09-10T14:23:55.230Z,100713.44
2023-09-10T14:26:21.876Z,100716.97
2023-09-10T14:28:48.524Z,100710.75
2023-09-10T14:31:15.294Z,100710.75
2023-09-10T14:33:43.597Z,100713.44
2023-09-10T14:36:10.770Z,100710.75
2023-09-10T14:38:37.503Z,100708.06
2023-09-10T14:41:04.206Z,100712.56
2023-09-10T14:43:30.872Z,100706.38
2023-09-10T14:45:58.114Z,100702.84
2023-09-10T14:48:25.080Z,100701.97
2023-09-10T14:50:52.152Z,100699.28
2023-09-10T14:53:18.954Z,100695.75
2023-09-10T14:55:45.691Z,100696.62
2023-09-10T14:58:12.661Z,100696.62
2023-09-10T15:00:40.264Z,100699.28
2023-09-10T15:03:08.316Z,100701.97
2023-09-10T15:05:35.376Z,100696.62
2023-09-10T15:08:02.295Z,100690.41
2023-09-10T15:10:28.994Z,100692.19
2023-09-10T15:12:55.748Z,100682.38
2023-09-10T15:15:22.447Z,100685.06
2023-09-10T15:17:49.214Z,100684.16
2023-09-10T15:20:16.059Z,100678.81
2023-09-10T15:22:44.286Z,100677.97
2023-09-10T15:25:11.364Z,100677.97
2023-09-10T15:27:39.283Z,100681.50
2023-09-10T15:30:06.467Z,100673.56
2023-09-10T15:32:33.233Z,100680.63
2023-09-10T15:34:59.954Z,100666.38
2023-09-10T15:37:26.700Z,100668.09
2023-09-10T15:39:53.544Z,100677.09
2023-09-10T15:42:20.165Z,100677.09
2023-09-10T15:44:46.996Z,100678.06
2023-09-10T15:47:13.758Z,100675.41
2023-09-10T15:49:40.477Z,100671.75
2023-09-10T15:52:07.214Z,100665.53
2023-09-10T15:54:36.324Z,100669.91
2023-09-10T15:57:04.755Z,100667.34
2023-09-10T15:59:31.724Z,100666.50
2023-09-10T16:02:15.390Z,100670.03
2023-09-10T16:04:42.137Z,100670.87
2023-09-10T16:07:08.858Z,100662.97
2023-09-10T16:09:35.523Z,100668.31
2023-09-10T16:12:02.293Z,100664.69
2023-09-10T16:14:28.962Z,100668.31
2023-09-10T16:16:56.770Z,100661.16
2023-09-10T16:19:23.705Z,100658.59
2023-09-10T16:21:50.353Z,100654.09
2023-09-10T16:24:17.010Z,100666.63
2023-09-10T16:26:43.811Z,100662.97
2023-09-10T16:29:10.877Z,100661.25
2023-09-10T16:31:37.515Z,100660.41
2023-09-10T16:34:04.335Z,100668.44
2023-09-10T16:36:34.691Z,100663.94
2023-09-10T16:39:01.920Z,100669.31
2023-09-10T16:41:28.676Z,100665.78
2023-09-10T16:43:55.376Z,100665.84
2023-09-10T16:46:22.249Z,100671.13
2023-09-10T16:48:48.996Z,100670.25
2023-09-10T16:51:15.814Z,100670.25
2023-09-10T16:53:43.219Z,100673.88
2023-09-10T16:56:10.231Z,100664.88
2023-09-10T16:58:39.377Z,100672.06
2023-09-10T17:01:06.148Z,100663.19
2023-09-10T17:03:33.168Z,100668.53
2023-09-10T17:06:09.339Z,100665.84
2023-09-10T17:08:36.216Z,100670.25
2023-09-10T17:11:04.207Z,100673.88
2023-09-10T17:13:31.288Z,100675.72
2023-09-10T17:16:06.821Z,100672.19
2023-09-10T17:18:33.908Z,100670.34
2023-09-10T17:21:00.578Z,100672.19
2023-09-10T17:23:27.274Z,100667.78
2023-09-10T17:26:00.649Z,100674.84
2023-09-10T17:28:27.354Z,100672.19
2023-09-10T17:30:54.011Z,100674.84
2023-09-10T17:33:20.719Z,100669.50
2023-09-10T17:35:50.265Z,100675.81
2023-09-10T17:38:17.896Z,100682.03
2023-09-10T17:40:44.736Z,100672.28
2023-09-10T17:43:11.482Z,100675.81
2023-09-10T17:45:38.182Z,100678.50
2023-09-10T17:48:05.363Z,100681.19
2023-09-10T17:50:32.148Z,100677.66
2023-09-10T17:52:58.828Z,100677.66
2023-09-10T17:55:29.076Z,100682.16
2023-09-10T17:57:56.644Z,100678.59
2023-09-10T18:00:23.941Z,100681.25
2023-09-10T18:02:51.299Z,100688.44
2023-09-10T18:05:18.373Z,100683.00
2023-09-10T18:07:45.029Z,100693.72
2023-09-10T18:10:11.934Z,100688.37
2023-09-10T18:12:38.711Z,100691.13
2023-09-10T18:15:06.227Z,100696.41
2023-09-10T18:17:33.663Z,100701.84
2023-09-10T18:20:00.719Z,100704.50
2023-09-10T18:22:27.384Z,100705.37
2023-09-10T18:24:54.134Z,100709.88
2023-09-10T18:27:20.812Z,100709.88
2023-09-10T18:29:47.646Z,100714.28
2023-09-10T18:32:14.520Z,100717.91
2023-09-10T18:34:41.198Z,100718.75
2023-09-10T18:37:07.861Z,100710.84
2023-09-10T18:39:34.531Z,100714.38
2023-09-10T18:42:01.232Z,100714.38
2023-09-10T18:44:28.020Z,100718.87
2023-09-10T18:46:55.479Z,100718.00
2023-09-10T18:49:22.148Z,100722.41
2023-09-10T18:52:11.121Z,100728.63
2023-09-10T18:54:38.552Z,100734.94
2023-09-10T18:57:06.559Z,100730.56
2023-09-10T18:59:33.593Z,100730.56
2023-09-10T19:02:00.476Z,100733.13
2023-09-10T19:04:27.606Z,100718.00
2023-09-10T19:06:54.347Z,100725.19
2023-09-10T19:09:20.984Z,100727.88
2023-09-10T19:11:47.764Z,100734.94
2023-09-10T19:14:17.689Z,100734.94
2023-09-10T19:16:44.666Z,100730.56
2023-09-10T19:19:11.456Z,100728.72
2023-09-10T19:21:41.135Z,100729.69
2023-09-10T19:24:08.069Z,100722.53
2023-09-10T19:26:34.951Z,100736.75
2023-09-10T19:29:01.876Z,100733.22
2023-09-10T19:31:34.599Z,100729.69
2023-09-10T19:34:04.402Z,100728.84
2023-09-10T19:36:34.465Z,100726.16
2023-09-10T19:39:08.840Z,100718.13
2023-09-10T19:41:35.846Z,100718.13
2023-09-10T19:44:03.142Z,100718.13
2023-09-10T19:46:30.585Z,100726.16
2023-09-10T19:48:57.301Z,100722.63
2023-09-10T19:51:24.339Z,100719.06
2023-09-10T19:53:53.665Z,100717.28
2023-09-10T19:56:23.305Z,100712.00
2023-09-10T19:59:07.565Z,100721.75
2023-09-10T20:01:44.885Z,100719.06
2023-09-10T20:04:12.109Z,100715.53
2023-09-10T20:06:39.822Z,100726.25
2023-09-10T20:09:08.486Z,100730.75
2023-09-10T20:11:35.581Z,100728.06
2023-09-10T20:14:02.551Z,100727.22
2023-09-10T20:16:29.275Z,100728.94
2023-09-10T20:18:56.229Z,100721.87
2023-09-10T20:21:23.916Z,100733.44
2023-09-10T20:23:50.651Z,100730.75
2023-09-10T20:26:17.407Z,100728.06
2023-09-10T20:28:44.211Z,100732.56
2023-09-10T20:31:10.962Z,100736.09
2023-09-10T20:33:37.734Z,100726.38
2023-09-10T20:36:08.304Z,100729.91
2023-09-10T20:38:35.870Z,100728.06
2023-09-10T20:41:05.951Z,100732.56
2023-09-10T20:43:32.605Z,100728.19
2023-09-10T20:45:59.248Z,100734.41
2023-09-10T20:48:25.893Z,100730.00
2023-09-10T20:50:53.941Z,100728.19
2023-09-10T20:53:20.885Z,100735.25
2023-09-10T20:55:47.610Z,100727.31
2023-09-10T20:58:14.357Z,100732.69
2023-09-10T21:00:41.661Z,100727.22
2023-09-10T21:03:18.235Z,100730.00
2023-09-10T21:05:53.291Z,100726.38
2023-09-10T21:08:20.385Z,100731.72
2023-09-10T21:10:47.265Z,100727.22
2023-09-10T21:13:14.028Z,100721.00
2023-09-10T21:15:40.701Z,100729.03
2023-09-10T21:18:07.659Z,100731.72
2023-09-10T21:20:34.546Z,100729.91
2023-09-10T21:23:01.341Z,100727.31
2023-09-10T21:25:27.998Z,100733.44
2023-09-10T21:27:54.749Z,100731.72
2023-09-10T21:30:21.369Z,100737.06
2023-09-10T21:32:48.915Z,100737.06
2023-09-10T21:35:15.919Z,100729.16
2023-09-10T21:37:42.651Z,100729.03
2023-09-10T21:40:11.482Z,100732.56
2023-09-10T21:42:38.089Z,100727.22
2023-09-10T21:45:05.383Z,100729.03
2023-09-10T21:47:32.271Z,100732.47
2023-09-10T21:49:59.008Z,100727.22
2023-09-10T21:52:25.682Z,100727.22
2023-09-10T21:54:52.417Z,100719.31
2023-09-10T21:57:19.218Z,100735.37
2023-09-10T21:59:46.019Z,100728.19
2023-09-10T22:02:12.705Z,100726.38
2023-09-10T22:04:39.489Z,100729.03
2023-09-10T22:07:06.236Z,100725.50
2023-09-10T22:09:33.822Z,100729.91
2023-09-10T22:12:00.681Z,100732.56
2023-09-10T22:14:27.373Z,100718.31
2023-09-10T22:16:54.099Z,100721.97
2023-09-10T22:19:20.816Z,100728.19
2023-09-10T22:21:50.268Z,100727.31
2023-09-10T22:24:16.950Z,100725.50
2023-09-10T22:26:43.633Z,100730.00
2023-09-10T22:29:10.259Z,100717.59
2023-09-10T22:31:36.905Z,100713.94
2023-09-10T22:34:03.641Z,100716.62
2023-09-10T22:36:38.092Z,100708.59
2023-09-10T22:39:06.096Z,100715.75
2023-09-10T22:41:32.826Z,100711.25
2023-09-10T22:43:59.548Z,100711.25
2023-09-10T22:46:28.369Z,100711.37
2023-09-10T22:48:55.258Z,100716.72
2023-09-10T22:51:21.999Z,100717.59
2023-09-10T22:53:51.942Z,100717.59
2023-09-10T22:56:21.331Z,100723.78
2023-09-10T22:58:48.640Z,100718.44
2023-09-10T23:01:15.775Z,100724.66
2023-09-10T23:03:42.744Z,100722.94
2023-09-10T23:06:09.927Z,100717.59
2023-09-10T23:08:39.900Z,100713.09
2023-09-10T23:11:07.466Z,100706.88
2023-09-10T23:13:35.938Z,100705.13
2023-09-10T23:16:03.134Z,100694.44
2023-09-10T23:18:30.017Z,100705.13
2023-09-10T23:20:56.809Z,100698.00
2023-09-10T23:23:23.625Z,100699.78
2023-09-10T23:25:50.440Z,100701.59
2023-09-10T23:28:17.068Z,100701.59
2023-09-10T23:30:43.808Z,100701.59
2023-09-10T23:33:10.754Z,100703.44
2023-09-10T23:35:38.665Z,100693.69
2023-09-10T23:38:07.378Z,100698.06
2023-09-10T23:40:34.092Z,100701.72
2023-09-10T23:43:00.791Z,100702.56
2023-09-10T23:45:27.589Z,100707.06
2023-09-10T23:47:54.436Z,100704.41
2023-09-10T23:50:21.418Z,100706.97
2023-09-10T23:52:49.272Z,100705.37
2023-09-10T23:55:16.124Z,100705.37
2023-09-10T23:57:42.966Z,100698.31
